sensor_id;sensor_type;location;lat;lon;timestamp;pressure;altitude;pressure_sealevel;temperature;humidity
20710;BME280;10516;51.518;9.864;2022-12-07T00:01:10;98664.41;;;2.15;93.03
20710;BME280;10516;51.518;9.864;2022-12-07T00:03:37;98659.53;;;2.12;93.46
20710;BME280;10516;51.518;9.864;2022-12-07T00:06:03;98648.63;;;2.22;93.17
20710;BME280;10516;51.518;9.864;2022-12-07T00:08:30;98663.97;;;2.12;92.94
20710;BME280;10516;51.518;9.864;2022-12-07T00:11:01;98656.84;;;1.93;93.59
20710;BME280;10516;51.518;9.864;2022-12-07T00:13:27;98662.97;;;2.13;93.81
20710;BME280;10516;51.518;9.864;2022-12-07T00:15:52;98648.81;;;2.07;93.56
20710;BME280;10516;51.518;9.864;2022-12-07T00:18:17;98642.88;;;1.99;94.04
20710;BME280;10516;51.518;9.864;2022-12-07T00:20:43;98635.81;;;1.93;93.42
20710;BME280;10516;51.518;9.864;2022-12-07T00:23:08;98640.44;;;1.91;94.00
20710;BME280;10516;51.518;9.864;2022-12-07T00:25:33;98644.75;;;2.05;94.26
20710;BME280;10516;51.518;9.864;2022-12-07T00:27:59;98638.88;;;2.03;93.60
20710;BME280;10516;51.518;9.864;2022-12-07T00:30:24;98641.56;;;2.36;93.73
20710;BME280;10516;51.518;9.864;2022-12-07T00:32:50;98641.75;;;2.34;93.33
20710;BME280;10516;51.518;9.864;2022-12-07T00:35:15;98641.34;;;2.24;93.63
20710;BME280;10516;51.518;9.864;2022-12-07T00:37:41;98628.97;;;2.18;93.81
20710;BME280;10516;51.518;9.864;2022-12-07T00:40:06;98619.63;;;2.02;93.71
20710;BME280;10516;51.518;9.864;2022-12-07T00:42:32;98635.47;;;2.22;93.53
20710;BME280;10516;51.518;9.864;2022-12-07T00:44:58;98616.22;;;2.28;93.17
20710;BME280;10516;51.518;9.864;2022-12-07T00:47:23;98626.75;;;2.21;93.45
20710;BME280;10516;51.518;9.864;2022-12-07T00:49:48;98623.13;;;2.22;93.26
20710;BME280;10516;51.518;9.864;2022-12-07T00:52:14;98620.28;;;2.24;93.55
20710;BME280;10516;51.518;9.864;2022-12-07T00:54:40;98597.38;;;2.11;93.65
20710;BME280;10516;51.518;9.864;2022-12-07T00:57:05;98595.38;;;2.13;93.49
20710;BME280;10516;51.518;9.864;2022-12-07T00:59:30;98606.91;;;2.32;93.30
20710;BME280;10516;51.518;9.864;2022-12-07T01:01:56;98582.00;;;2.21;93.09
20710;BME280;10516;51.518;9.864;2022-12-07T01:04:21;98598.81;;;2.27;92.90
20710;BME280;10516;51.518;9.864;2022-12-07T01:06:47;98599.44;;;2.22;92.93
20710;BME280;10516;51.518;9.864;2022-12-07T01:09:12;98585.44;;;2.28;93.51
20710;BME280;10516;51.518;9.864;2022-12-07T01:11:37;98575.91;;;2.27;93.00
20710;BME280;10516;51.518;9.864;2022-12-07T01:14:03;98580.19;;;2.28;93.19
20710;BME280;10516;51.518;9.864;2022-12-07T01:16:30;98577.34;;;2.17;93.24
20710;BME280;10516;51.518;9.864;2022-12-07T01:18:56;98567.00;;;2.22;93.24
20710;BME280;10516;51.518;9.864;2022-12-07T01:21:24;98588.91;;;2.36;93.40
20710;BME280;10516;51.518;9.864;2022-12-07T01:23:50;98586.44;;;2.34;92.81
20710;BME280;10516;51.518;9.864;2022-12-07T01:26:19;98582.41;;;2.45;92.37
20710;BME280;10516;51.518;9.864;2022-12-07T01:28:45;98590.94;;;2.34;92.67
20710;BME280;10516;51.518;9.864;2022-12-07T01:31:16;98589.50;;;2.44;93.30
20710;BME280;10516;51.518;9.864;2022-12-07T01:33:44;98579.38;;;2.35;93.00
20710;BME280;10516;51.518;9.864;2022-12-07T01:36:18;98583.81;;;2.41;93.13
20710;BME280;10516;51.518;9.864;2022-12-07T01:38:46;98571.47;;;2.35;93.01
20710;BME280;10516;51.518;9.864;2022-12-07T01:41:13;98578.75;;;2.39;93.74
20710;BME280;10516;51.518;9.864;2022-12-07T01:46:32;98562.75;;;2.27;93.56
20710;BME280;10516;51.518;9.864;2022-12-07T01:48:58;98588.09;;;2.28;93.67
20710;BME280;10516;51.518;9.864;2022-12-07T01:51:25;98575.72;;;2.22;93.93
20710;BME280;10516;51.518;9.864;2022-12-07T01:53:51;98586.06;;;2.24;93.77
20710;BME280;10516;51.518;9.864;2022-12-07T01:56:20;98587.88;;;2.37;93.65
20710;BME280;10516;51.518;9.864;2022-12-07T01:58:47;98577.34;;;2.23;93.55
20710;BME280;10516;51.518;9.864;2022-12-07T02:01:14;98583.63;;;2.29;93.69
20710;BME280;10516;51.518;9.864;2022-12-07T02:03:42;98591.94;;;2.39;93.25
20710;BME280;10516;51.518;9.864;2022-12-07T02:06:08;98577.75;;;2.40;92.83
20710;BME280;10516;51.518;9.864;2022-12-07T02:08:35;98569.88;;;2.27;93.48
20710;BME280;10516;51.518;9.864;2022-12-07T02:11:02;98562.16;;;2.25;93.15
20710;BME280;10516;51.518;9.864;2022-12-07T02:13:31;98578.75;;;2.33;93.51
20710;BME280;10516;51.518;9.864;2022-12-07T02:29:25;98558.31;;;2.35;93.83
20710;BME280;10516;51.518;9.864;2022-12-07T02:35:03;98562.97;;;2.33;93.55
20710;BME280;10516;51.518;9.864;2022-12-07T02:37:48;98562.75;;;2.27;93.28
20710;BME280;10516;51.518;9.864;2022-12-07T02:43:13;98552.41;;;2.46;93.60
20710;BME280;10516;51.518;9.864;2022-12-07T02:45:42;98551.81;;;2.44;93.80
20710;BME280;10516;51.518;9.864;2022-12-07T02:48:12;98567.41;;;2.45;93.77
20710;BME280;10516;51.518;9.864;2022-12-07T02:50:38;98551.00;;;2.37;93.57
20710;BME280;10516;51.518;9.864;2022-12-07T02:53:04;98548.97;;;2.32;93.59
20710;BME280;10516;51.518;9.864;2022-12-07T02:55:34;98553.44;;;2.38;93.72
20710;BME280;10516;51.518;9.864;2022-12-07T02:58:11;98541.91;;;2.26;93.42
20710;BME280;10516;51.518;9.864;2022-12-07T03:00:52;98539.47;;;2.18;94.13
20710;BME280;10516;51.518;9.864;2022-12-07T03:03:20;98558.69;;;2.38;93.97
20710;BME280;10516;51.518;9.864;2022-12-07T03:08:50;98522.66;;;2.25;94.12
20710;BME280;10516;51.518;9.864;2022-12-07T03:11:34;98547.38;;;2.31;94.33
20710;BME280;10516;51.518;9.864;2022-12-07T03:14:19;98496.53;;;2.04;94.41
20710;BME280;10516;51.518;9.864;2022-12-07T03:17:00;98550.59;;;2.46;94.07
20710;BME280;10516;51.518;9.864;2022-12-07T03:19:31;98521.22;;;2.36;93.78
20710;BME280;10516;51.518;9.864;2022-12-07T03:22:02;98536.22;;;2.42;93.88
20710;BME280;10516;51.518;9.864;2022-12-07T03:24:36;98541.06;;;2.45;93.83
20710;BME280;10516;51.518;9.864;2022-12-07T03:27:19;98518.41;;;2.31;94.03
20710;BME280;10516;51.518;9.864;2022-12-07T03:29:50;98540.91;;;2.40;94.29
20710;BME280;10516;51.518;9.864;2022-12-07T03:32:33;98507.47;;;2.27;93.91
20710;BME280;10516;51.518;9.864;2022-12-07T03:35:09;98526.09;;;2.19;95.03
20710;BME280;10516;51.518;9.864;2022-12-07T03:37:57;98533.38;;;2.50;93.76
20710;BME280;10516;51.518;9.864;2022-12-07T03:40:34;98540.66;;;2.48;93.74
20710;BME280;10516;51.518;9.864;2022-12-07T03:43:01;98522.25;;;2.48;93.67
20710;BME280;10516;51.518;9.864;2022-12-07T03:46:15;98520.59;;;2.47;93.97
20710;BME280;10516;51.518;9.864;2022-12-07T03:48:37;98530.53;;;2.45;94.00
20710;BME280;10516;51.518;9.864;2022-12-07T03:57:01;98536.41;;;2.34;95.03
20710;BME280;10516;51.518;9.864;2022-12-07T03:59:27;98513.94;;;2.38;94.07
20710;BME280;10516;51.518;9.864;2022-12-07T04:01:56;98535.63;;;2.53;94.29
20710;BME280;10516;51.518;9.864;2022-12-07T04:04:23;98521.00;;;2.57;93.70
20710;BME280;10516;51.518;9.864;2022-12-07T04:06:49;98518.38;;;2.57;93.57
20710;BME280;10516;51.518;9.864;2022-12-07T04:09:15;98534.78;;;2.53;94.03
20710;BME280;10516;51.518;9.864;2022-12-07T04:11:41;98521.44;;;2.35;94.50
20710;BME280;10516;51.518;9.864;2022-12-07T04:14:07;98533.59;;;2.55;94.42
20710;BME280;10516;51.518;9.864;2022-12-07T04:16:52;98545.34;;;2.53;94.81
20710;BME280;10516;51.518;9.864;2022-12-07T04:19:20;98535.22;;;2.37;95.03
20710;BME280;10516;51.518;9.864;2022-12-07T04:21:46;98529.31;;;2.54;94.60
20710;BME280;10516;51.518;9.864;2022-12-07T04:24:14;98522.25;;;2.35;94.73
20710;BME280;10516;51.518;9.864;2022-12-07T04:26:40;98528.91;;;2.57;94.65
20710;BME280;10516;51.518;9.864;2022-12-07T04:29:06;98510.69;;;2.36;94.13
20710;BME280;10516;51.518;9.864;2022-12-07T04:31:32;98510.88;;;2.48;94.05
20710;BME280;10516;51.518;9.864;2022-12-07T04:33:57;98518.59;;;2.43;94.01
20710;BME280;10516;51.518;9.864;2022-12-07T04:36:22;98509.47;;;2.45;93.76
20710;BME280;10516;51.518;9.864;2022-12-07T04:38:48;98520.22;;;2.31;94.03
20710;BME280;10516;51.518;9.864;2022-12-07T04:41:13;98531.16;;;2.41;94.65
20710;BME280;10516;51.518;9.864;2022-12-07T04:43:39;98517.81;;;2.29;95.14
20710;BME280;10516;51.518;9.864;2022-12-07T04:46:05;98534.38;;;2.49;94.22
20710;BME280;10516;51.518;9.864;2022-12-07T04:48:30;98501.81;;;2.24;94.24
20710;BME280;10516;51.518;9.864;2022-12-07T04:50:56;98524.91;;;2.22;94.32
20710;BME280;10516;51.518;9.864;2022-12-07T04:53:21;98536.00;;;2.44;94.56
20710;BME280;10516;51.518;9.864;2022-12-07T04:55:47;98534.00;;;2.33;94.61
20710;BME280;10516;51.518;9.864;2022-12-07T04:58:13;98533.41;;;2.24;95.16
20710;BME280;10516;51.518;9.864;2022-12-07T05:00:39;98529.13;;;2.23;94.60
20710;BME280;10516;51.518;9.864;2022-12-07T05:03:05;98533.00;;;2.27;94.97
20710;BME280;10516;51.518;9.864;2022-12-07T05:05:31;98540.06;;;2.40;94.56
20710;BME280;10516;51.518;9.864;2022-12-07T05:07:56;98505.03;;;2.13;94.55
20710;BME280;10516;51.518;9.864;2022-12-07T05:10:22;98538.06;;;2.28;94.56
20710;BME280;10516;51.518;9.864;2022-12-07T05:12:48;98522.03;;;2.04;94.76
20710;BME280;10516;51.518;9.864;2022-12-07T05:15:14;98543.31;;;2.22;94.79
20710;BME280;10516;51.518;9.864;2022-12-07T05:17:40;98536.25;;;2.29;94.38
20710;BME280;10516;51.518;9.864;2022-12-07T05:20:07;98542.50;;;2.28;94.20
20710;BME280;10516;51.518;9.864;2022-12-07T05:22:33;98525.50;;;2.24;94.30
20710;BME280;10516;51.518;9.864;2022-12-07T05:24:58;98521.84;;;2.25;94.32
20710;BME280;10516;51.518;9.864;2022-12-07T05:27:24;98523.25;;;2.34;93.86
20710;BME280;10516;51.518;9.864;2022-12-07T05:29:50;98518.00;;;2.21;93.97
20710;BME280;10516;51.518;9.864;2022-12-07T05:32:16;98519.03;;;2.26;94.37
20710;BME280;10516;51.518;9.864;2022-12-07T05:34:41;98528.72;;;2.26;93.92
20710;BME280;10516;51.518;9.864;2022-12-07T05:37:07;98513.34;;;2.10;94.36
20710;BME280;10516;51.518;9.864;2022-12-07T05:39:32;98526.31;;;2.18;94.39
20710;BME280;10516;51.518;9.864;2022-12-07T05:41:57;98504.84;;;2.14;94.66
20710;BME280;10516;51.518;9.864;2022-12-07T05:44:39;98511.53;;;2.17;94.41
20710;BME280;10516;51.518;9.864;2022-12-07T05:47:05;98526.09;;;2.26;94.60
20710;BME280;10516;51.518;9.864;2022-12-07T05:49:31;98512.34;;;2.17;93.99
20710;BME280;10516;51.518;9.864;2022-12-07T05:51:56;98513.53;;;2.15;94.57
20710;BME280;10516;51.518;9.864;2022-12-07T05:54:22;98518.41;;;2.18;94.95
20710;BME280;10516;51.518;9.864;2022-12-07T05:56:47;98505.03;;;2.13;94.68
20710;BME280;10516;51.518;9.864;2022-12-07T05:59:12;98505.66;;;2.15;94.21
20710;BME280;10516;51.518;9.864;2022-12-07T06:01:58;98522.25;;;2.28;94.02
20710;BME280;10516;51.518;9.864;2022-12-07T06:04:25;98517.81;;;2.29;94.32
20710;BME280;10516;51.518;9.864;2022-12-07T06:06:51;98511.72;;;2.09;94.42
20710;BME280;10516;51.518;9.864;2022-12-07T06:09:18;98500.38;;;2.15;94.37
20710;BME280;10516;51.518;9.864;2022-12-07T06:11:44;98504.03;;;2.20;94.31
20710;BME280;10516;51.518;9.864;2022-12-07T06:14:28;98512.53;;;2.22;94.76
20710;BME280;10516;51.518;9.864;2022-12-07T06:16:54;98499.19;;;2.04;94.27
20710;BME280;10516;51.518;9.864;2022-12-07T06:19:19;98507.88;;;2.18;95.16
20710;BME280;10516;51.518;9.864;2022-12-07T06:21:45;98501.59;;;2.19;94.62
20710;BME280;10516;51.518;9.864;2022-12-07T06:24:11;98505.84;;;2.20;94.95
20710;BME280;10516;51.518;9.864;2022-12-07T06:26:37;98498.56;;;2.15;94.17
20710;BME280;10516;51.518;9.864;2022-12-07T06:29:03;98505.66;;;2.15;94.28
20710;BME280;10516;51.518;9.864;2022-12-07T06:31:29;98504.44;;;2.11;94.19
20710;BME280;10516;51.518;9.864;2022-12-07T06:34:02;98512.34;;;2.11;94.09
20710;BME280;10516;51.518;9.864;2022-12-07T06:36:28;98510.09;;;2.01;94.51
20710;BME280;10516;51.518;9.864;2022-12-07T06:38:54;98516.78;;;2.17;94.23
20710;BME280;10516;51.518;9.864;2022-12-07T06:41:20;98524.06;;;2.15;94.27
20710;BME280;10516;51.518;9.864;2022-12-07T06:43:46;98517.81;;;2.16;94.52
20710;BME280;10516;51.518;9.864;2022-12-07T06:46:12;98517.59;;;2.04;95.17
20710;BME280;10516;51.518;9.864;2022-12-07T06:48:38;98514.97;;;2.24;94.79
20710;BME280;10516;51.518;9.864;2022-12-07T06:51:03;98529.34;;;2.35;93.87
20710;BME280;10516;51.518;9.864;2022-12-07T06:53:29;98513.75;;;2.20;94.43
20710;BME280;10516;51.518;9.864;2022-12-07T06:55:54;98536.03;;;2.24;94.74
20710;BME280;10516;51.518;9.864;2022-12-07T06:58:19;98524.69;;;2.17;94.77
20710;BME280;10516;51.518;9.864;2022-12-07T07:00:45;98528.34;;;2.29;94.41
20710;BME280;10516;51.518;9.864;2022-12-07T07:03:11;98510.53;;;2.18;94.08
20710;BME280;10516;51.518;9.864;2022-12-07T07:05:37;98531.59;;;2.18;94.41
20710;BME280;10516;51.518;9.864;2022-12-07T07:08:03;98525.50;;;2.24;94.41
20710;BME280;10516;51.518;9.864;2022-12-07T07:10:28;98523.88;;;2.23;94.70
20710;BME280;10516;51.518;9.864;2022-12-07T07:12:54;98518.41;;;2.11;95.25
20710;BME280;10516;51.518;9.864;2022-12-07T07:15:19;98534.22;;;2.24;94.83
20710;BME280;10516;51.518;9.864;2022-12-07T07:17:45;98535.63;;;2.20;94.71
20710;BME280;10516;51.518;9.864;2022-12-07T07:20:11;98512.13;;;2.19;95.09
20710;BME280;10516;51.518;9.864;2022-12-07T07:22:36;98535.81;;;2.25;94.89
20710;BME280;10516;51.518;9.864;2022-12-07T07:25:02;98542.50;;;2.28;94.63
20710;BME280;10516;51.518;9.864;2022-12-07T07:27:27;98522.47;;;2.20;94.55
20710;BME280;10516;51.518;9.864;2022-12-07T07:29:52;98526.91;;;2.33;94.35
20710;BME280;10516;51.518;9.864;2022-12-07T07:32:18;98538.44;;;2.25;94.81
20710;BME280;10516;51.518;9.864;2022-12-07T07:34:43;98514.75;;;2.19;95.18
20710;BME280;10516;51.518;9.864;2022-12-07T07:37:09;98539.88;;;2.35;94.87
20710;BME280;10516;51.518;9.864;2022-12-07T07:39:36;98525.88;;;2.21;94.68
20710;BME280;10516;51.518;9.864;2022-12-07T07:42:01;98528.34;;;2.29;94.69
20710;BME280;10516;51.518;9.864;2022-12-07T07:44:26;98531.56;;;2.31;95.03
20710;BME280;10516;51.518;9.864;2022-12-07T07:46:52;98536.84;;;2.24;95.16
20710;BME280;10516;51.518;9.864;2022-12-07T07:49:17;98518.22;;;2.19;95.35
20710;BME280;10516;51.518;9.864;2022-12-07T07:51:43;98542.50;;;2.35;95.09
20710;BME280;10516;51.518;9.864;2022-12-07T07:54:08;98527.91;;;2.25;94.57
20710;BME280;10516;51.518;9.864;2022-12-07T07:56:33;98542.88;;;2.38;94.93
20710;BME280;10516;51.518;9.864;2022-12-07T07:58:59;98545.34;;;2.33;95.09
20710;BME280;10516;51.518;9.864;2022-12-07T08:01:24;98534.38;;;2.23;94.80
20710;BME280;10516;51.518;9.864;2022-12-07T08:03:49;98554.66;;;2.29;95.60
20710;BME280;10516;51.518;9.864;2022-12-07T08:06:15;98537.03;;;2.23;94.73
20710;BME280;10516;51.518;9.864;2022-12-07T08:08:41;98538.06;;;2.35;95.12
20710;BME280;10516;51.518;9.864;2022-12-07T08:11:08;98555.06;;;2.33;95.05
20710;BME280;10516;51.518;9.864;2022-12-07T08:13:34;98550.63;;;2.40;94.91
20710;BME280;10516;51.518;9.864;2022-12-07T08:16:07;98554.84;;;2.41;95.23
20710;BME280;10516;51.518;9.864;2022-12-07T08:18:38;98539.06;;;2.34;94.48
20710;BME280;10516;51.518;9.864;2022-12-07T08:21:04;98554.84;;;2.41;94.58
20710;BME280;10516;51.518;9.864;2022-12-07T08:23:30;98540.47;;;2.30;94.84
20710;BME280;10516;51.518;9.864;2022-12-07T08:26:00;98524.47;;;2.25;95.20
20710;BME280;10516;51.518;9.864;2022-12-07T08:28:26;98548.59;;;2.28;94.93
20710;BME280;10516;51.518;9.864;2022-12-07T08:30:51;98538.06;;;2.22;95.17
20710;BME280;10516;51.518;9.864;2022-12-07T08:33:17;98544.13;;;2.29;95.13
20710;BME280;10516;51.518;9.864;2022-12-07T08:35:42;98545.75;;;2.30;95.28
20710;BME280;10516;51.518;9.864;2022-12-07T08:38:07;98554.84;;;2.34;94.65
20710;BME280;10516;51.518;9.864;2022-12-07T08:40:33;98556.88;;;2.32;94.74
20710;BME280;10516;51.518;9.864;2022-12-07T08:42:58;98560.94;;;2.28;94.84
20710;BME280;10516;51.518;9.864;2022-12-07T08:45:24;98553.63;;;2.30;94.95
20710;BME280;10516;51.518;9.864;2022-12-07T08:47:57;98547.16;;;2.13;94.36
20710;BME280;10516;51.518;9.864;2022-12-07T08:50:27;98562.56;;;2.36;94.85
20710;BME280;10516;51.518;9.864;2022-12-07T08:52:54;98558.69;;;2.38;93.84
20710;BME280;10516;51.518;9.864;2022-12-07T08:55:22;98574.09;;;2.48;94.84
20710;BME280;10516;51.518;9.864;2022-12-07T08:57:48;98551.59;;;2.45;94.55
20710;BME280;10516;51.518;9.864;2022-12-07T09:00:14;98551.00;;;2.43;94.14
20710;BME280;10516;51.518;9.864;2022-12-07T09:02:39;98541.91;;;2.39;94.15
20710;BME280;10516;51.518;9.864;2022-12-07T09:05:05;98547.56;;;2.36;94.45
20710;BME280;10516;51.518;9.864;2022-12-07T09:07:32;98558.31;;;2.41;94.56
20710;BME280;10516;51.518;9.864;2022-12-07T09:09:58;98548.97;;;2.32;94.36
20710;BME280;10516;51.518;9.864;2022-12-07T09:12:24;98559.50;;;2.39;94.84
20710;BME280;10516;51.518;9.864;2022-12-07T09:14:49;98555.06;;;2.52;95.36
20710;BME280;10516;51.518;9.864;2022-12-07T09:17:14;98538.25;;;2.40;94.57
20710;BME280;10516;51.518;9.864;2022-12-07T09:19:40;98561.94;;;2.53;94.92
20710;BME280;10516;51.518;9.864;2022-12-07T09:22:07;98562.13;;;2.45;94.93
20710;BME280;10516;51.518;9.864;2022-12-07T09:24:33;98561.53;;;2.43;95.17
20710;BME280;10516;51.518;9.864;2022-12-07T09:26:58;98563.56;;;2.54;95.58
20710;BME280;10516;51.518;9.864;2022-12-07T09:29:24;98563.16;;;2.51;94.74
20710;BME280;10516;51.518;9.864;2022-12-07T09:31:50;98567.00;;;2.68;94.53
20710;BME280;10516;51.518;9.864;2022-12-07T09:34:16;98562.13;;;2.65;95.17
20710;BME280;10516;51.518;9.864;2022-12-07T09:36:41;98556.06;;;2.64;95.07
20710;BME280;10516;51.518;9.864;2022-12-07T09:39:07;98554.22;;;2.65;94.55
20710;BME280;10516;51.518;9.864;2022-12-07T09:41:40;98569.41;;;2.69;94.54
20710;BME280;10516;51.518;9.864;2022-12-07T09:44:12;98563.53;;;2.67;94.94
20710;BME280;10516;51.518;9.864;2022-12-07T09:46:40;98567.81;;;2.68;94.52
20710;BME280;10516;51.518;9.864;2022-12-07T09:49:17;98567.59;;;2.63;94.92
20710;BME280;10516;51.518;9.864;2022-12-07T09:51:44;98562.34;;;2.63;95.30
20710;BME280;10516;51.518;9.864;2022-12-07T09:54:13;98557.91;;;2.57;95.16
20710;BME280;10516;51.518;9.864;2022-12-07T09:56:39;98557.88;;;2.64;95.15
20710;BME280;10516;51.518;9.864;2022-12-07T09:59:04;98563.16;;;2.64;94.33
20710;BME280;10516;51.518;9.864;2022-12-07T10:01:31;98557.91;;;2.57;94.60
20710;BME280;10516;51.518;9.864;2022-12-07T10:04:09;98554.44;;;2.44;95.11
20710;BME280;10516;51.518;9.864;2022-12-07T10:06:38;98560.69;;;2.69;94.87
20710;BME280;10516;51.518;9.864;2022-12-07T10:09:09;98547.94;;;2.66;94.27
20710;BME280;10516;51.518;9.864;2022-12-07T10:11:35;98559.91;;;2.75;94.39
20710;BME280;10516;51.518;9.864;2022-12-07T10:14:20;98529.50;;;2.66;94.45
20710;BME280;10516;51.518;9.864;2022-12-07T10:16:46;98561.09;;;2.79;94.15
20710;BME280;10516;51.518;9.864;2022-12-07T10:19:27;98546.91;;;2.67;94.67
20710;BME280;10516;51.518;9.864;2022-12-07T10:22:12;98553.59;;;2.69;95.06
20710;BME280;10516;51.518;9.864;2022-12-07T10:24:39;98541.22;;;2.76;94.67
20710;BME280;10516;51.518;9.864;2022-12-07T10:27:20;98551.94;;;2.94;94.65
20710;BME280;10516;51.518;9.864;2022-12-07T10:29:51;98546.88;;;2.86;94.26
20710;BME280;10516;51.518;9.864;2022-12-07T10:34:42;98571.66;;;2.72;94.43
20710;BME280;10516;51.518;9.864;2022-12-07T10:42:33;98545.13;;;2.54;94.38
20710;BME280;10516;51.518;9.864;2022-12-07T10:45:09;98547.72;;;2.80;94.60
20710;BME280;10516;51.518;9.864;2022-12-07T10:59:16;98545.06;;;2.87;93.86
20710;BME280;10516;51.518;9.864;2022-12-07T11:01:51;98555.63;;;2.80;94.01
20710;BME280;10516;51.518;9.864;2022-12-07T11:07:52;98552.34;;;2.91;93.58
20710;BME280;10516;51.518;9.864;2022-12-07T11:10:40;98540.41;;;2.82;93.46
20710;BME280;10516;51.518;9.864;2022-12-07T11:24:22;98523.59;;;2.83;93.27
20710;BME280;10516;51.518;9.864;2022-12-07T11:27:31;98531.66;;;2.88;93.25
20710;BME280;10516;51.518;9.864;2022-12-07T11:30:23;98515.03;;;2.94;93.33
20710;BME280;10516;51.518;9.864;2022-12-07T11:33:17;98520.53;;;2.86;93.14
20710;BME280;10516;51.518;9.864;2022-12-07T11:35:55;98508.97;;;2.87;93.24
20710;BME280;10516;51.518;9.864;2022-12-07T11:41:08;98512.06;;;2.65;93.25
20710;BME280;10516;51.518;9.864;2022-12-07T11:44:08;98519.50;;;2.94;93.63
20710;BME280;10516;51.518;9.864;2022-12-07T11:46:55;98508.13;;;2.93;92.78
20710;BME280;10516;51.518;9.864;2022-12-07T11:49:26;98516.22;;;3.05;92.72
20710;BME280;10516;51.518;9.864;2022-12-07T11:51:54;98510.56;;;2.88;93.04
20710;BME280;10516;51.518;9.864;2022-12-07T11:54:30;98484.09;;;2.77;93.38
20710;BME280;10516;51.518;9.864;2022-12-07T11:57:03;98500.66;;;2.97;93.31
20710;BME280;10516;51.518;9.864;2022-12-07T11:59:42;98502.47;;;2.96;93.14
20710;BME280;10516;51.518;9.864;2022-12-07T12:02:37;98509.28;;;3.11;92.69
20710;BME280;10516;51.518;9.864;2022-12-07T12:05:15;98499.34;;;3.13;92.37
20710;BME280;10516;51.518;9.864;2022-12-07T12:07:43;98504.00;;;3.11;92.92
20710;BME280;10516;51.518;9.864;2022-12-07T12:11:00;98506.63;;;3.17;92.67
20710;BME280;10516;51.518;9.864;2022-12-07T12:22:05;98487.00;;;3.07;93.29
20710;BME280;10516;51.518;9.864;2022-12-07T12:24:35;98488.84;;;2.99;93.47
20710;BME280;10516;51.518;9.864;2022-12-07T12:27:06;98498.16;;;3.09;93.54
20710;BME280;10516;51.518;9.864;2022-12-07T12:29:37;98491.25;;;3.14;93.33
20710;BME280;10516;51.518;9.864;2022-12-07T12:34:58;98478.06;;;3.14;93.26
20710;BME280;10516;51.518;9.864;2022-12-07T12:42:47;98468.13;;;3.10;92.60
20710;BME280;10516;51.518;9.864;2022-12-07T12:45:32;98479.22;;;3.25;92.48
20710;BME280;10516;51.518;9.864;2022-12-07T12:48:09;98468.75;;;3.05;92.81
20710;BME280;10516;51.518;9.864;2022-12-07T12:54:04;98440.22;;;2.95;92.71
20710;BME280;10516;51.518;9.864;2022-12-07T12:56:39;98464.22;;;3.25;92.57
20710;BME280;10516;51.518;9.864;2022-12-07T13:01:48;98462.84;;;3.16;91.98
20710;BME280;10516;51.518;9.864;2022-12-07T13:04:24;98445.78;;;3.19;91.68
20710;BME280;10516;51.518;9.864;2022-12-07T13:06:51;98443.34;;;3.17;92.47
20710;BME280;10516;51.518;9.864;2022-12-07T13:09:28;98438.66;;;3.19;90.33
20710;BME280;10516;51.518;9.864;2022-12-07T13:12:00;98441.59;;;3.04;90.16
20710;BME280;10516;51.518;9.864;2022-12-07T13:20:02;98449.78;;;3.28;90.81
20710;BME280;10516;51.518;9.864;2022-12-07T13:27:56;98450.59;;;3.28;92.00
20710;BME280;10516;51.518;9.864;2022-12-07T13:30:22;98433.69;;;3.04;92.02
20710;BME280;10516;51.518;9.864;2022-12-07T13:32:56;98447.84;;;3.17;91.50
20710;BME280;10516;51.518;9.864;2022-12-07T13:35:30;98448.94;;;3.34;91.73
20710;BME280;10516;51.518;9.864;2022-12-07T13:37:56;98455.47;;;3.25;92.20
20710;BME280;10516;51.518;9.864;2022-12-07T13:40:22;98428.22;;;2.99;91.91
20710;BME280;10516;51.518;9.864;2022-12-07T13:42:57;98449.94;;;3.33;91.51
20710;BME280;10516;51.518;9.864;2022-12-07T13:45:32;98444.34;;;3.23;91.29
20710;BME280;10516;51.518;9.864;2022-12-07T13:48:35;98446.16;;;3.22;91.49
20710;BME280;10516;51.518;9.864;2022-12-07T13:51:03;98436.13;;;2.99;91.97
20710;BME280;10516;51.518;9.864;2022-12-07T13:53:29;98439.28;;;3.15;91.36
20710;BME280;10516;51.518;9.864;2022-12-07T13:55:59;98433.44;;;3.13;91.92
20710;BME280;10516;51.518;9.864;2022-12-07T13:58:27;98447.91;;;3.35;91.87
20710;BME280;10516;51.518;9.864;2022-12-07T14:00:54;98430.75;;;3.19;91.72
20710;BME280;10516;51.518;9.864;2022-12-07T14:03:28;98437.06;;;3.18;91.74
20710;BME280;10516;51.518;9.864;2022-12-07T14:08:31;98425.75;;;3.11;91.93
20710;BME280;10516;51.518;9.864;2022-12-07T14:10:57;98424.13;;;3.10;92.19
20710;BME280;10516;51.518;9.864;2022-12-07T14:13:37;98439.22;;;3.28;91.98
20710;BME280;10516;51.518;9.864;2022-12-07T14:16:34;98439.06;;;3.23;91.97
20710;BME280;10516;51.518;9.864;2022-12-07T14:19:03;98438.28;;;3.16;92.17
20710;BME280;10516;51.518;9.864;2022-12-07T14:21:31;98429.38;;;3.17;91.84
20710;BME280;10516;51.518;9.864;2022-12-07T14:24:17;98435.50;;;3.04;91.68
20710;BME280;10516;51.518;9.864;2022-12-07T14:26:45;98422.13;;;3.06;91.90
20710;BME280;10516;51.518;9.864;2022-12-07T14:31:52;98407.34;;;2.98;91.79
20710;BME280;10516;51.518;9.864;2022-12-07T14:34:22;98426.81;;;3.03;91.69
20710;BME280;10516;51.518;9.864;2022-12-07T14:36:48;98421.53;;;3.03;92.07
20710;BME280;10516;51.518;9.864;2022-12-07T14:39:13;98427.41;;;3.06;91.66
20710;BME280;10516;51.518;9.864;2022-12-07T14:41:38;98426.16;;;3.08;91.60
20710;BME280;10516;51.518;9.864;2022-12-07T14:44:17;98416.44;;;3.02;91.53
20710;BME280;10516;51.518;9.864;2022-12-07T14:46:43;98420.59;;;2.85;91.70
20710;BME280;10516;51.518;9.864;2022-12-07T14:49:08;98415.31;;;2.85;91.70
20710;BME280;10516;51.518;9.864;2022-12-07T14:51:36;98406.03;;;2.76;91.78
20710;BME280;10516;51.518;9.864;2022-12-07T14:54:05;98417.59;;;2.81;91.26
20710;BME280;10516;51.518;9.864;2022-12-07T14:56:31;98426.84;;;2.97;90.88
20710;BME280;10516;51.518;9.864;2022-12-07T14:58:56;98418.72;;;2.98;90.97
20710;BME280;10516;51.518;9.864;2022-12-07T15:01:22;98403.00;;;2.79;90.59
20710;BME280;10516;51.518;9.864;2022-12-07T15:03:48;98416.94;;;2.92;90.96
20710;BME280;10516;51.518;9.864;2022-12-07T15:06:15;98418.13;;;2.96;91.04
20710;BME280;10516;51.518;9.864;2022-12-07T15:08:41;98401.34;;;2.84;91.01